createdAt,value
2022-12-11T00:00:34.499Z,2.59
2022-12-11T00:01:37.309Z,2.52
2022-12-11T00:02:43.552Z,2.44
2022-12-11T00:03:47.583Z,2.41
2022-12-11T00:04:50.455Z,2.38
2022-12-11T00:05:53.334Z,2.26
2022-12-11T00:06:56.466Z,2.27
2022-12-11T00:08:00.784Z,2.23
2022-12-11T00:09:03.774Z,2.29
2022-12-11T00:10:07.373Z,2.38
2022-12-11T00:11:13.255Z,2.33
2022-12-11T00:12:16.015Z,2.27
2022-12-11T00:13:18.856Z,2.30
2022-12-11T00:14:21.736Z,2.27
2022-12-11T00:15:24.495Z,2.34
2022-12-11T00:16:27.945Z,2.24
2022-12-11T00:17:30.974Z,2.22
2022-12-11T00:18:34.054Z,2.21
2022-12-11T00:19:36.973Z,2.05
2022-12-11T00:20:39.813Z,1.99
2022-12-11T00:21:42.891Z,2.02
2022-12-11T00:22:45.915Z,2.07
2022-12-11T00:23:48.855Z,2.14
2022-12-11T00:24:52.232Z,2.18
2022-12-11T00:25:55.255Z,2.09
2022-12-11T00:26:58.584Z,2.13
2022-12-11T00:28:01.620Z,2.10
2022-12-11T00:29:05.058Z,2.08
2022-12-11T00:30:08.709Z,2.06
2022-12-11T00:31:19.308Z,2.05
2022-12-11T00:32:22.304Z,2.04
2022-12-11T00:33:27.453Z,2.10
2022-12-11T00:34:30.465Z,2.17
2022-12-11T00:35:33.455Z,2.07
2022-12-11T00:36:36.417Z,1.97
2022-12-11T00:37:39.378Z,2.03
2022-12-11T00:38:51.010Z,2.03
2022-12-11T00:39:53.781Z,1.86
2022-12-11T00:41:00.303Z,1.84
2022-12-11T00:42:03.048Z,1.97
2022-12-11T00:43:06.055Z,1.89
2022-12-11T00:44:08.854Z,1.84
2022-12-11T00:45:11.987Z,1.90
2022-12-11T00:46:15.707Z,1.99
2022-12-11T00:47:18.784Z,2.07
2022-12-11T00:48:21.750Z,1.86
2022-12-11T00:49:24.704Z,1.91
2022-12-11T00:50:27.863Z,1.78
2022-12-11T00:51:30.727Z,1.69
2022-12-11T00:52:33.682Z,1.76
2022-12-11T00:53:37.467Z,1.77
2022-12-11T00:54:40.390Z,1.85
2022-12-11T00:55:44.483Z,1.85
2022-12-11T00:56:47.671Z,1.80
2022-12-11T00:57:52.691Z,1.79
2022-12-11T00:58:55.930Z,1.64
2022-12-11T00:59:58.807Z,1.78
2022-12-11T01:01:11.037Z,1.67
2022-12-11T01:02:14.124Z,1.70
2022-12-11T01:03:18.157Z,1.75
2022-12-11T01:05:28.987Z,1.64
2022-12-11T01:06:35.737Z,1.65
2022-12-11T01:07:39.039Z,1.65
2022-12-11T01:08:42.850Z,1.59
2022-12-11T01:10:04.572Z,1.60
2022-12-11T01:11:11.364Z,1.61
2022-12-11T01:12:14.357Z,1.62
2022-12-11T01:13:17.727Z,1.59
2022-12-11T01:14:20.534Z,1.65
2022-12-11T01:15:28.772Z,1.75
2022-12-11T01:16:31.981Z,1.53
2022-12-11T01:17:34.920Z,1.42
2022-12-11T01:18:38.610Z,1.51
2022-12-11T01:19:41.534Z,1.57
2022-12-11T01:20:44.408Z,1.49
2022-12-11T01:21:47.296Z,1.38
2022-12-11T01:22:53.922Z,1.57
2022-12-11T01:23:56.983Z,1.56
2022-12-11T01:25:03.664Z,1.49
2022-12-11T01:26:15.301Z,1.46
2022-12-11T01:27:18.249Z,1.64
2022-12-11T01:28:21.062Z,1.67
2022-12-11T01:29:23.943Z,1.46
2022-12-11T01:30:30.867Z,1.50
2022-12-11T01:31:34.262Z,1.53
2022-12-11T01:32:37.717Z,1.43
2022-12-11T01:33:41.041Z,1.44
2022-12-11T01:34:43.947Z,1.47
2022-12-11T01:35:46.775Z,1.47
2022-12-11T01:36:52.136Z,1.39
2022-12-11T01:37:55.527Z,1.42
2022-12-11T01:38:58.541Z,1.56
2022-12-11T01:40:02.101Z,1.57
2022-12-11T01:41:05.300Z,1.54
2022-12-11T01:42:16.216Z,1.46
2022-12-11T01:43:19.562Z,1.47
2022-12-11T01:44:22.316Z,1.30
2022-12-11T01:45:46.435Z,1.31
2022-12-11T01:46:49.392Z,1.39
2022-12-11T01:47:57.430Z,1.42
2022-12-11T01:49:02.798Z,1.30
2022-12-11T01:50:06.082Z,1.32
2022-12-11T01:51:08.887Z,1.25
2022-12-11T01:52:20.034Z,1.36
2022-12-11T01:53:32.764Z,1.28
2022-12-11T01:54:35.823Z,1.21
2022-12-11T01:55:43.607Z,1.25
2022-12-11T01:56:50.629Z,1.30
2022-12-11T01:57:54.443Z,1.23
2022-12-11T01:59:03.596Z,1.32
2022-12-11T02:00:10.739Z,1.16
2022-12-11T02:01:25.556Z,1.21
2022-12-11T02:02:31.279Z,1.28
2022-12-11T02:03:34.409Z,1.16
2022-12-11T02:04:39.400Z,1.07
2022-12-11T02:05:42.510Z,1.26
2022-12-11T02:06:48.575Z,1.20
2022-12-11T02:07:55.817Z,1.21
2022-12-11T02:08:58.843Z,1.19
2022-12-11T02:10:01.749Z,1.10
2022-12-11T02:11:21.388Z,0.94
2022-12-11T02:12:58.087Z,0.94
2022-12-11T02:14:11.297Z,0.97
2022-12-11T02:15:36.129Z,1.03
2022-12-11T02:16:54.198Z,0.81
2022-12-11T02:18:21.969Z,0.92
2022-12-11T02:19:49.023Z,0.88
2022-12-11T02:21:03.684Z,0.87
2022-12-11T02:22:11.845Z,0.76
2022-12-11T02:23:23.625Z,0.81
2022-12-11T02:24:48.013Z,0.78
2022-12-11T02:26:20.374Z,0.79
2022-12-11T02:27:49.414Z,0.79
2022-12-11T02:29:02.253Z,0.61
2022-12-11T02:30:14.244Z,0.66
2022-12-11T02:31:25.993Z,0.56
2022-12-11T02:32:44.073Z,0.57
2022-12-11T02:34:01.745Z,0.56
2022-12-11T02:35:08.229Z,0.56
2022-12-11T02:36:14.376Z,0.54
2022-12-11T02:37:21.384Z,0.61
2022-12-11T02:38:31.495Z,0.54
2022-12-11T02:39:38.159Z,0.50
2022-12-11T02:40:44.308Z,0.53
2022-12-11T02:41:51.661Z,0.39
2022-12-11T02:42:58.389Z,0.40
2022-12-11T02:44:03.779Z,0.55
2022-12-11T02:45:09.985Z,0.48
2022-12-11T02:46:14.650Z,0.39
2022-12-11T02:47:21.589Z,0.47
2022-12-11T02:48:24.981Z,0.50
2022-12-11T02:49:29.394Z,0.58
2022-12-11T02:50:34.209Z,0.62
2022-12-11T02:51:42.672Z,0.48
2022-12-11T02:52:48.774Z,0.45
2022-12-11T02:53:54.913Z,0.36
2022-12-11T02:54:59.959Z,0.31
2022-12-11T02:56:13.569Z,0.36
2022-12-11T02:57:33.853Z,0.36
2022-12-11T02:58:43.828Z,0.38
2022-12-11T02:59:47.300Z,0.36
2022-12-11T03:00:51.109Z,0.29
2022-12-11T03:01:54.507Z,0.36
2022-12-11T03:02:58.313Z,0.39
2022-12-11T03:04:01.267Z,0.33
2022-12-11T03:05:04.560Z,0.26
2022-12-11T03:06:10.463Z,0.23
2022-12-11T03:07:23.766Z,0.25
2022-12-11T03:08:27.018Z,0.25
2022-12-11T03:09:30.057Z,0.14
2022-12-11T03:10:33.215Z,0.13
2022-12-11T03:11:36.226Z,0.21
2022-12-11T03:12:42.341Z,0.05
2022-12-11T03:13:45.280Z,0.10
2022-12-11T03:14:49.181Z,0.07
2022-12-11T03:16:38.799Z,0.19
2022-12-11T03:17:56.740Z,0.14
2022-12-11T03:19:18.051Z,0.10
2022-12-11T03:20:34.830Z,0.24
2022-12-11T03:22:07.455Z,0.23
2022-12-11T03:23:25.052Z,0.18
2022-12-11T03:24:52.746Z,0.33
2022-12-11T03:26:01.772Z,0.25
2022-12-11T03:27:20.669Z,0.17
2022-12-11T03:28:42.766Z,0.02
2022-12-11T03:29:58.605Z,0.15
2022-12-11T03:31:07.565Z,0.19
2022-12-11T03:32:15.147Z,0.29
2022-12-11T03:33:42.440Z,0.29
2022-12-11T03:34:58.527Z,0.32
2022-12-11T03:36:09.176Z,0.17
2022-12-11T03:37:14.237Z,0.22
2022-12-11T03:38:40.556Z,0.23
2022-12-11T03:39:50.916Z,0.13
2022-12-11T03:40:57.556Z,0.16
2022-12-11T03:42:03.395Z,0.13
2022-12-11T03:43:07.531Z,0.27
2022-12-11T03:44:11.652Z,0.15
2022-12-11T03:45:17.835Z,0.13
2022-12-11T03:46:25.933Z,0.12
2022-12-11T03:47:30.296Z,0.07
2022-12-11T03:48:36.508Z,0.03
2022-12-11T03:49:43.158Z,0.08
2022-12-11T03:50:48.785Z,0.16
2022-12-11T03:51:55.703Z,0.21
2022-12-11T03:53:01.134Z,0.32
2022-12-11T03:54:04.371Z,0.30
2022-12-11T03:55:09.548Z,0.22
2022-12-11T03:56:16.228Z,0.22
2022-12-11T03:57:34.069Z,0.15
2022-12-11T03:58:37.095Z,0.15
2022-12-11T03:59:40.135Z,0.05
2022-12-11T04:00:43.444Z,0.04
2022-12-11T04:01:49.666Z,0.10
2022-12-11T04:03:13.953Z,0.15
2022-12-11T04:04:17.506Z,0.18
2022-12-11T04:05:20.440Z,0.15
2022-12-11T04:06:23.432Z,0.27
2022-12-11T04:07:26.441Z,0.21
2022-12-11T04:08:29.713Z,0.17
2022-12-11T04:09:33.439Z,0.03
2022-12-11T04:10:36.613Z,0.07
2022-12-11T04:11:39.792Z,0.04
2022-12-11T04:12:42.720Z,0.16
2022-12-11T04:13:45.605Z,0.17
2022-12-11T04:15:03.519Z,0.07
2022-12-11T04:16:06.855Z,0.10
2022-12-11T04:17:09.795Z,0.14
2022-12-11T04:18:48.088Z,0.14
2022-12-11T04:20:10.120Z,0.13
2022-12-11T04:21:35.125Z,0.02
2022-12-11T04:23:00.924Z,0.01
2022-12-11T04:24:16.207Z,-0.01
2022-12-11T04:25:19.219Z,0.03
2022-12-11T04:26:22.188Z,0.05
2022-12-11T04:27:43.533Z,0.00
2022-12-11T04:28:48.333Z,0.15
2022-12-11T04:29:51.361Z,0.06
2022-12-11T04:30:54.380Z,0.01
2022-12-11T04:31:57.664Z,-0.04
2022-12-11T04:33:00.707Z,0.03
2022-12-11T04:34:03.685Z,0.09
2022-12-11T04:35:09.543Z,0.14
2022-12-11T04:36:13.901Z,0.03
2022-12-11T04:37:16.783Z,-0.07
2022-12-11T04:38:19.830Z,-0.08
2022-12-11T04:39:22.840Z,-0.01
2022-12-11T04:40:25.738Z,-0.02
2022-12-11T04:41:29.016Z,-0.03
2022-12-11T04:42:31.870Z,-0.01
2022-12-11T04:43:35.233Z,0.02
2022-12-11T04:44:38.087Z,0.06
2022-12-11T04:45:41.052Z,-0.03
2022-12-11T04:46:44.867Z,0.08
2022-12-11T04:47:48.169Z,0.09
2022-12-11T04:48:57.035Z,-0.01
2022-12-11T04:50:00.718Z,0.04
2022-12-11T04:51:03.660Z,-0.04
2022-12-11T04:52:08.619Z,0.00
2022-12-11T04:53:11.539Z,-0.05
2022-12-11T04:54:17.685Z,-0.13
2022-12-11T04:55:20.587Z,0.06
2022-12-11T04:56:23.433Z,0.06
2022-12-11T04:57:26.559Z,0.03
2022-12-11T04:58:29.702Z,0.05
2022-12-11T04:59:33.695Z,0.04
2022-12-11T05:00:36.537Z,-0.05
2022-12-11T05:01:39.603Z,0.01
2022-12-11T05:02:43.348Z,0.08
2022-12-11T05:03:46.703Z,0.12
2022-12-11T05:04:49.694Z,0.01
2022-12-11T05:05:54.299Z,0.06
2022-12-11T05:06:57.052Z,0.25
2022-12-11T05:08:00.201Z,0.17
2022-12-11T05:09:03.295Z,0.18
2022-12-11T05:10:07.093Z,0.12
2022-12-11T05:11:15.678Z,0.02
2022-12-11T05:12:18.575Z,0.02
2022-12-11T05:13:21.515Z,-0.02
2022-12-11T05:14:24.483Z,-0.07
2022-12-11T05:15:27.479Z,-0.02
2022-12-11T05:16:30.513Z,-0.01
2022-12-11T05:17:34.274Z,-0.02
2022-12-11T05:18:37.269Z,0.02
2022-12-11T05:19:40.949Z,0.05
2022-12-11T05:20:45.879Z,-0.06
2022-12-11T05:21:48.886Z,-0.07
2022-12-11T05:22:54.843Z,-0.04
2022-12-11T05:23:57.622Z,0.04
2022-12-11T05:25:00.550Z,0.07
2022-12-11T05:26:06.383Z,0.02
2022-12-11T05:27:10.352Z,-0.06
2022-12-11T05:28:13.751Z,-0.03
2022-12-11T05:29:16.585Z,-0.01
2022-12-11T05:30:19.650Z,0.02
2022-12-11T05:31:25.407Z,0.17
2022-12-11T05:32:28.957Z,0.09
2022-12-11T05:33:32.042Z,0.13
2022-12-11T05:34:35.119Z,0.10
2022-12-11T05:35:38.028Z,0.04
2022-12-11T05:36:41.228Z,0.06
2022-12-11T05:37:44.817Z,0.06
2022-12-11T05:38:48.493Z,0.03
2022-12-11T05:39:51.211Z,-0.02
2022-12-11T05:41:00.936Z,-0.02
2022-12-11T05:42:03.942Z,0.04
2022-12-11T05:43:06.734Z,0.11
2022-12-11T05:44:13.262Z,0.15
2022-12-11T05:45:16.099Z,0.09
2022-12-11T05:46:25.318Z,0.01
2022-12-11T05:47:28.361Z,0.13
2022-12-11T05:48:31.207Z,0.08
2022-12-11T05:49:34.131Z,-0.05
2022-12-11T05:50:40.648Z,0.01
2022-12-11T05:51:44.106Z,0.09
2022-12-11T05:52:47.134Z,0.03
2022-12-11T05:53:51.978Z,0.08
2022-12-11T05:54:54.768Z,0.02
2022-12-11T05:56:13.309Z,0.10
2022-12-11T05:57:16.158Z,0.08
2022-12-11T05:58:19.782Z,0.02
2022-12-11T05:59:22.579Z,-0.04
2022-12-11T06:00:25.453Z,-0.11
2022-12-11T06:01:34.910Z,-0.06
2022-12-11T06:02:38.257Z,-0.05
2022-12-11T06:03:41.794Z,-0.16
2022-12-11T06:04:44.766Z,-0.14
2022-12-11T06:05:47.744Z,-0.05
2022-12-11T06:06:50.777Z,-0.03
2022-12-11T06:07:53.740Z,0.04
2022-12-11T06:08:58.338Z,0.04
2022-12-11T06:10:01.255Z,-0.01
2022-12-11T06:11:04.790Z,-0.18
2022-12-11T06:12:07.597Z,-0.11
2022-12-11T06:13:10.380Z,0.01
2022-12-11T06:14:14.172Z,0.04
2022-12-11T06:15:17.136Z,-0.10
2022-12-11T06:16:21.349Z,-0.17
2022-12-11T06:17:24.208Z,-0.16
2022-12-11T06:18:27.111Z,-0.13
2022-12-11T06:19:33.462Z,-0.08
2022-12-11T06:20:39.874Z,-0.06
2022-12-11T06:21:42.773Z,0.01
2022-12-11T06:22:45.783Z,-0.02
2022-12-11T06:23:51.662Z,-0.14
2022-12-11T06:24:54.703Z,-0.09
2022-12-11T06:25:57.573Z,-0.06
2022-12-11T06:27:00.422Z,0.09
2022-12-11T06:28:04.216Z,-0.04
2022-12-11T06:29:10.998Z,-0.12
2022-12-11T06:30:15.338Z,-0.10
2022-12-11T06:31:19.258Z,-0.06
2022-12-11T06:32:22.661Z,-0.06
2022-12-11T06:33:25.865Z,-0.02
2022-12-11T06:34:29.105Z,-0.09
2022-12-11T06:35:31.828Z,-0.10
2022-12-11T06:36:35.145Z,-0.12
2022-12-11T06:37:38.977Z,-0.01
2022-12-11T06:38:42.342Z,0.15
2022-12-11T06:39:45.375Z,0.06
2022-12-11T06:40:55.504Z,0.15
2022-12-11T06:41:58.363Z,0.12
2022-12-11T06:43:01.155Z,-0.08
2022-12-11T06:44:04.214Z,-0.16
2022-12-11T06:45:07.534Z,-0.10
2022-12-11T06:46:16.596Z,-0.10
2022-12-11T06:47:19.614Z,-0.16
2022-12-11T06:48:23.010Z,-0.24
2022-12-11T06:49:25.977Z,-0.11
2022-12-11T06:50:32.894Z,-0.06
2022-12-11T06:51:35.717Z,-0.08
2022-12-11T06:52:38.739Z,-0.15
2022-12-11T06:53:41.870Z,-0.02
2022-12-11T06:54:44.695Z,-0.08
2022-12-11T06:55:47.496Z,-0.10
2022-12-11T06:56:50.270Z,-0.22
2022-12-11T06:57:53.134Z,-0.12
2022-12-11T06:58:57.335Z,-0.15
2022-12-11T07:00:00.505Z,-0.21
2022-12-11T07:01:04.993Z,-0.31
2022-12-11T07:02:08.067Z,-0.31
2022-12-11T07:03:11.774Z,-0.28
2022-12-11T07:04:14.730Z,-0.20
2022-12-11T07:05:17.823Z,-0.24
2022-12-11T07:06:20.892Z,-0.13
2022-12-11T07:07:23.733Z,-0.14
2022-12-11T07:08:29.407Z,-0.11
2022-12-11T07:09:32.506Z,-0.07
2022-12-11T07:10:35.553Z,-0.25
2022-12-11T07:11:38.338Z,-0.13
2022-12-11T07:12:41.209Z,-0.06
2022-12-11T07:13:44.652Z,-0.05
2022-12-11T07:14:47.505Z,-0.13
2022-12-11T07:15:50.373Z,-0.07
2022-12-11T07:16:53.409Z,-0.12
2022-12-11T07:17:56.335Z,-0.05
2022-12-11T07:18:59.327Z,-0.15
2022-12-11T07:20:02.218Z,-0.18
2022-12-11T07:21:06.544Z,-0.17
2022-12-11T07:22:09.573Z,-0.15
2022-12-11T07:23:12.507Z,-0.05
2022-12-11T07:24:15.723Z,-0.17
2022-12-11T07:25:18.695Z,-0.13
2022-12-11T07:26:22.456Z,0.01
2022-12-11T07:27:25.852Z,0.02
2022-12-11T07:28:29.028Z,-0.16
2022-12-11T07:29:31.897Z,-0.13
2022-12-11T07:30:34.835Z,-0.14
2022-12-11T07:31:37.798Z,-0.17
2022-12-11T07:32:42.325Z,-0.20
2022-12-11T07:33:47.503Z,-0.15
2022-12-11T07:34:52.072Z,-0.14
2022-12-11T07:35:55.298Z,-0.11
2022-12-11T07:36:58.446Z,-0.16
2022-12-11T07:38:01.612Z,-0.08
2022-12-11T07:39:04.653Z,-0.09
2022-12-11T07:40:08.257Z,-0.02
2022-12-11T07:41:13.269Z,-0.05
2022-12-11T07:42:16.057Z,-0.06
2022-12-11T07:43:18.999Z,-0.08
2022-12-11T07:44:22.041Z,-0.13
2022-12-11T07:45:26.759Z,-0.11
2022-12-11T07:46:32.710Z,-0.03
2022-12-11T07:47:35.605Z,-0.03
2022-12-11T07:48:40.136Z,0.02
2022-12-11T07:49:43.335Z,-0.02
2022-12-11T07:50:46.551Z,-0.08
2022-12-11T07:51:49.774Z,-0.07
2022-12-11T07:52:56.730Z,-0.13
2022-12-11T07:54:02.235Z,-0.17
2022-12-11T07:55:05.820Z,-0.12
2022-12-11T07:56:09.309Z,-0.09
2022-12-11T07:57:14.379Z,-0.04
2022-12-11T07:58:17.792Z,-0.06
2022-12-11T07:59:21.344Z,-0.05
2022-12-11T08:00:24.330Z,0.04
2022-12-11T08:01:29.159Z,0.06
2022-12-11T08:02:37.510Z,0.14
2022-12-11T08:03:40.679Z,0.08
2022-12-11T08:04:43.535Z,-0.01
2022-12-11T08:05:50.488Z,0.03
2022-12-11T08:06:53.258Z,-0.05
2022-12-11T08:07:56.225Z,-0.05
2022-12-11T08:09:03.704Z,-0.02
2022-12-11T08:10:07.093Z,0.02
2022-12-11T08:11:14.370Z,0.11
2022-12-11T08:12:17.296Z,0.11
2022-12-11T08:13:20.028Z,0.29
2022-12-11T08:14:22.887Z,0.20
2022-12-11T08:15:25.657Z,0.11
2022-12-11T08:16:29.275Z,0.19
2022-12-11T08:17:38.241Z,0.28
2022-12-11T08:18:44.996Z,0.19
2022-12-11T08:19:47.898Z,0.20
2022-12-11T08:20:50.918Z,0.20
2022-12-11T08:21:54.099Z,0.21
2022-12-11T08:22:59.298Z,0.05
2022-12-11T08:24:02.353Z,0.13
2022-12-11T08:25:11.964Z,0.02
2022-12-11T08:26:21.360Z,0.09
2022-12-11T08:27:24.310Z,0.04
2022-12-11T08:28:27.446Z,0.07
2022-12-11T08:29:30.286Z,0.02
2022-12-11T08:30:33.153Z,0.02
2022-12-11T08:32:44.021Z,0.02
2022-12-11T08:33:47.360Z,0.12
2022-12-11T08:34:51.799Z,0.10
2022-12-11T08:35:54.730Z,0.02
2022-12-11T08:36:57.544Z,-0.03
2022-12-11T08:38:00.474Z,0.05
2022-12-11T08:39:03.417Z,-0.02
2022-12-11T08:40:07.152Z,-0.02
2022-12-11T08:41:15.563Z,0.02
2022-12-11T08:42:18.498Z,0.08
2022-12-11T08:43:21.368Z,0.10
2022-12-11T08:44:26.454Z,0.12
2022-12-11T08:45:29.307Z,0.00
2022-12-11T08:46:33.207Z,0.09
2022-12-11T08:47:36.961Z,0.20
2022-12-11T08:48:42.508Z,0.22
2022-12-11T08:49:45.426Z,0.10
2022-12-11T08:50:48.236Z,0.20
2022-12-11T08:51:51.240Z,0.14
2022-12-11T08:52:54.182Z,0.12
2022-12-11T08:53:59.088Z,0.26
2022-12-11T08:55:02.192Z,0.21
2022-12-11T08:56:08.823Z,0.23
2022-12-11T08:57:11.731Z,0.13
2022-12-11T08:58:14.516Z,0.13
2022-12-11T08:59:20.172Z,0.09
2022-12-11T09:00:23.150Z,0.03
2022-12-11T09:01:27.211Z,-0.04
2022-12-11T09:02:30.189Z,-0.01
2022-12-11T09:03:33.529Z,0.09
2022-12-11T09:04:36.276Z,0.11
2022-12-11T09:05:39.371Z,-0.06
2022-12-11T09:06:42.297Z,-0.12
2022-12-11T09:07:45.850Z,-0.13
2022-12-11T09:08:53.442Z,-0.01
2022-12-11T09:09:56.482Z,0.00
2022-12-11T09:11:12.963Z,0.05
2022-12-11T09:12:15.930Z,0.06
2022-12-11T09:13:19.590Z,0.08
2022-12-11T09:14:22.729Z,0.02
2022-12-11T09:15:25.539Z,0.05
2022-12-11T09:16:29.230Z,0.02
2022-12-11T09:17:32.355Z,-0.02
2022-12-11T09:18:36.850Z,-0.03
2022-12-11T09:19:39.707Z,0.14
2022-12-11T09:20:42.710Z,0.13
2022-12-11T09:21:46.103Z,0.18
2022-12-11T09:22:52.283Z,0.08
2022-12-11T09:23:58.732Z,0.13
2022-12-11T09:25:01.712Z,-0.02
2022-12-11T09:26:06.399Z,0.07
2022-12-11T09:27:09.238Z,0.02
2022-12-11T09:28:12.189Z,-0.01
2022-12-11T09:29:15.069Z,0.11
2022-12-11T09:30:17.995Z,0.03
2022-12-11T09:31:26.955Z,-0.07
2022-12-11T09:32:30.601Z,-0.11
2022-12-11T09:33:33.413Z,-0.05
2022-12-11T09:34:36.458Z,-0.05
2022-12-11T09:35:39.188Z,-0.01
2022-12-11T09:36:44.625Z,-0.03
2022-12-11T09:37:47.534Z,0.14
2022-12-11T09:38:50.458Z,0.15
2022-12-11T09:39:53.586Z,0.13
2022-12-11T09:40:56.575Z,0.06
2022-12-11T09:42:22.745Z,0.09
2022-12-11T09:43:50.300Z,0.17
2022-12-11T09:44:59.227Z,0.14
2022-12-11T09:46:05.347Z,0.11
2022-12-11T09:47:35.636Z,0.08
2022-12-11T09:48:43.151Z,0.03
2022-12-11T09:49:48.747Z,0.02
2022-12-11T09:50:55.419Z,0.10
2022-12-11T09:52:29.748Z,0.11
2022-12-11T09:53:36.980Z,0.14
2022-12-11T09:54:58.053Z,0.20
2022-12-11T09:56:09.982Z,0.10
2022-12-11T09:57:24.569Z,0.10
2022-12-11T09:58:45.660Z,0.12
2022-12-11T10:00:05.992Z,0.10
2022-12-11T10:01:16.408Z,0.17
2022-12-11T10:02:57.082Z,0.13
2022-12-11T10:04:09.026Z,0.15
2022-12-11T10:05:27.453Z,0.10
2022-12-11T10:06:58.940Z,0.14
2022-12-11T10:08:10.779Z,0.23
2022-12-11T10:09:39.920Z,0.17
2022-12-11T10:11:04.507Z,0.23
2022-12-11T10:12:13.247Z,0.16
2022-12-11T10:13:18.841Z,0.06
2022-12-11T10:14:46.176Z,0.02
2022-12-11T10:16:13.662Z,0.06
2022-12-11T10:17:21.737Z,0.15
2022-12-11T10:18:28.409Z,0.16
2022-12-11T10:19:33.041Z,0.19
2022-12-11T10:20:39.711Z,0.28
2022-12-11T10:21:43.308Z,0.30
2022-12-11T10:22:51.093Z,0.21
2022-12-11T10:24:01.182Z,0.36
2022-12-11T10:25:11.107Z,0.19
2022-12-11T10:26:19.104Z,0.06
2022-12-11T10:27:28.706Z,0.09
2022-12-11T10:28:35.614Z,0.12
2022-12-11T10:29:38.729Z,0.12
2022-12-11T10:30:56.912Z,0.09
2022-12-11T10:31:59.874Z,0.07
2022-12-11T10:33:11.781Z,0.15
2022-12-11T10:34:33.401Z,0.36
2022-12-11T10:35:56.065Z,0.16
2022-12-11T10:37:00.568Z,0.12
2022-12-11T10:38:20.672Z,0.14
2022-12-11T10:39:24.258Z,0.11
2022-12-11T10:40:31.088Z,0.11
2022-12-11T10:41:44.989Z,0.08
2022-12-11T10:42:55.028Z,0.08
2022-12-11T10:43:58.101Z,0.10
2022-12-11T10:45:04.283Z,0.12
2022-12-11T10:46:25.377Z,0.17
2022-12-11T10:47:28.490Z,0.01
2022-12-11T10:48:34.078Z,-0.11
2022-12-11T10:49:38.986Z,-0.01
2022-12-11T10:50:45.226Z,0.00
2022-12-11T10:51:48.220Z,0.02
2022-12-11T10:52:52.016Z,0.14
2022-12-11T10:54:07.033Z,0.07
2022-12-11T10:55:27.637Z,0.05
2022-12-11T10:56:33.031Z,0.02
2022-12-11T10:57:39.452Z,0.06
2022-12-11T10:58:50.820Z,0.03
2022-12-11T10:59:53.770Z,-0.01
2022-12-11T11:01:16.877Z,-0.02
2022-12-11T11:02:40.653Z,0.07
2022-12-11T11:03:58.461Z,0.21
2022-12-11T11:05:12.031Z,0.24
2022-12-11T11:06:22.269Z,0.21
2022-12-11T11:07:28.705Z,0.06
2022-12-11T11:08:40.733Z,0.26
2022-12-11T11:09:43.841Z,0.09
2022-12-11T11:10:58.773Z,0.10
2022-12-11T11:12:07.602Z,0.11
2022-12-11T11:13:14.028Z,0.20
2022-12-11T11:14:19.857Z,0.16
2022-12-11T11:15:31.068Z,0.11
2022-12-11T11:16:37.899Z,0.09
2022-12-11T11:17:55.693Z,0.22
2022-12-11T11:18:59.192Z,0.19
2022-12-11T11:20:13.521Z,0.30
2022-12-11T11:21:19.324Z,0.24
2022-12-11T11:22:22.396Z,0.30
2022-12-11T11:23:26.419Z,0.35
2022-12-11T11:24:36.745Z,0.28
2022-12-11T11:25:40.603Z,0.22
2022-12-11T11:27:12.081Z,0.22
2022-12-11T11:28:18.143Z,0.29
2022-12-11T11:29:31.050Z,0.34
2022-12-11T11:30:45.774Z,0.26
2022-12-11T11:31:48.725Z,0.27
2022-12-11T11:33:02.569Z,0.22
2022-12-11T11:34:11.357Z,0.14
2022-12-11T11:35:18.315Z,0.25
2022-12-11T11:36:27.137Z,0.25
2022-12-11T11:37:34.927Z,0.09
2022-12-11T11:38:59.075Z,0.15
2022-12-11T11:40:25.104Z,0.12
2022-12-11T11:41:35.769Z,0.27
2022-12-11T11:42:56.406Z,0.27
2022-12-11T11:44:04.537Z,0.25
2022-12-11T11:45:21.121Z,0.27
2022-12-11T11:46:29.657Z,0.33
2022-12-11T11:47:42.673Z,0.33
2022-12-11T11:49:04.094Z,0.41
2022-12-11T11:50:15.621Z,0.34
2022-12-11T11:51:32.473Z,0.47
2022-12-11T11:52:47.762Z,0.43
2022-12-11T11:53:53.452Z,0.39
2022-12-11T11:55:35.228Z,0.52
2022-12-11T11:56:39.561Z,0.50
2022-12-11T11:57:57.619Z,0.39
2022-12-11T11:59:25.514Z,0.30
2022-12-11T12:00:33.532Z,0.20
2022-12-11T12:01:37.045Z,0.25
2022-12-11T12:02:41.899Z,0.26
2022-12-11T12:03:47.545Z,0.25
2022-12-11T12:04:51.561Z,0.19
2022-12-11T12:06:03.435Z,0.18
2022-12-11T12:07:33.471Z,0.23
2022-12-11T12:08:42.348Z,0.34
2022-12-11T12:10:12.673Z,0.23
2022-12-11T12:11:37.857Z,0.25
2022-12-11T12:12:57.098Z,0.28
2022-12-11T12:14:28.742Z,0.23
2022-12-11T12:15:52.940Z,0.35
2022-12-11T12:17:17.835Z,0.33
2022-12-11T12:18:42.284Z,0.16
2022-12-11T12:19:51.466Z,0.07
2022-12-11T12:21:16.209Z,0.22
2022-12-11T12:22:37.482Z,0.22
2022-12-11T12:24:05.056Z,0.27
2022-12-11T12:25:37.262Z,0.29
2022-12-11T12:27:02.099Z,0.31
2022-12-11T12:28:37.078Z,0.26
2022-12-11T12:29:39.930Z,0.27
2022-12-11T12:31:20.413Z,0.31
2022-12-11T12:32:33.079Z,0.25
2022-12-11T12:33:55.336Z,0.23
2022-12-11T12:35:11.999Z,0.26
2022-12-11T12:36:28.514Z,0.22
2022-12-11T12:37:45.718Z,0.21
2022-12-11T12:38:51.681Z,0.31
2022-12-11T12:40:11.307Z,0.32
2022-12-11T12:41:25.179Z,0.39
2022-12-11T12:42:35.152Z,0.30
2022-12-11T12:43:56.447Z,0.41
2022-12-11T12:45:24.217Z,0.33
2022-12-11T12:46:57.146Z,0.32
2022-12-11T12:48:00.400Z,0.34
2022-12-11T12:49:05.700Z,0.27
2022-12-11T12:50:16.358Z,0.34
2022-12-11T12:51:19.832Z,0.34
2022-12-11T12:52:31.854Z,0.42
2022-12-11T12:53:37.311Z,0.31
2022-12-11T12:54:42.847Z,0.37
2022-12-11T12:55:48.506Z,0.29
2022-12-11T12:56:51.560Z,0.23
2022-12-11T12:57:58.111Z,0.27
2022-12-11T12:59:01.195Z,0.38
2022-12-11T13:00:12.799Z,0.35
2022-12-11T13:01:25.807Z,0.39
2022-12-11T13:02:30.699Z,0.36
2022-12-11T13:03:52.008Z,0.30
2022-12-11T13:05:07.739Z,0.37
2022-12-11T13:06:11.308Z,0.51
2022-12-11T13:07:19.422Z,0.43
2022-12-11T13:08:27.211Z,0.42
2022-12-11T13:09:30.197Z,0.39
2022-12-11T13:10:36.488Z,0.39
2022-12-11T13:11:39.618Z,0.42
2022-12-11T13:12:46.400Z,0.34
2022-12-11T13:14:16.715Z,0.32
2022-12-11T13:15:40.927Z,0.47
2022-12-11T13:16:46.087Z,0.46
2022-12-11T13:17:49.200Z,0.33
2022-12-11T13:18:52.597Z,0.49
2022-12-11T13:20:29.838Z,0.36
2022-12-11T13:21:36.157Z,0.32
2022-12-11T13:22:55.310Z,0.35
2022-12-11T13:24:15.457Z,0.28
2022-12-11T13:25:30.999Z,0.16
2022-12-11T13:26:34.519Z,0.19
2022-12-11T13:27:42.021Z,0.22
2022-12-11T13:28:45.234Z,0.15
2022-12-11T13:29:48.247Z,0.21
2022-12-11T13:31:14.847Z,0.25
2022-12-11T13:32:17.766Z,0.32
2022-12-11T13:33:23.392Z,0.21
2022-12-11T13:34:33.085Z,0.29
2022-12-11T13:35:36.250Z,0.28
2022-12-11T13:36:41.837Z,0.22
2022-12-11T13:37:47.611Z,0.31
2022-12-11T13:38:59.436Z,0.21
2022-12-11T13:40:24.492Z,0.29
2022-12-11T13:41:28.822Z,0.26
2022-12-11T13:42:43.814Z,0.33
2022-12-11T13:43:50.420Z,0.47
2022-12-11T13:44:54.024Z,0.32
2022-12-11T13:46:10.204Z,0.25
2022-12-11T13:47:16.206Z,0.44
2022-12-11T13:48:24.893Z,0.47
2022-12-11T13:49:38.039Z,0.43
2022-12-11T13:50:44.077Z,0.31
2022-12-11T13:51:58.657Z,0.34
2022-12-11T13:53:03.830Z,0.44
2022-12-11T13:54:19.139Z,0.38
2022-12-11T13:55:28.181Z,0.48
2022-12-11T13:56:31.233Z,0.49
2022-12-11T13:57:34.460Z,0.42
2022-12-11T13:58:40.779Z,0.38
2022-12-11T13:59:49.655Z,0.27
2022-12-11T14:01:13.857Z,0.31
2022-12-11T14:02:35.642Z,0.35
2022-12-11T14:04:00.866Z,0.29
2022-12-11T14:05:08.134Z,0.21
2022-12-11T14:06:18.218Z,0.26
2022-12-11T14:07:38.228Z,0.19
2022-12-11T14:08:46.799Z,0.21
2022-12-11T14:09:49.971Z,0.19
2022-12-11T14:10:54.677Z,0.20
2022-12-11T14:11:59.580Z,0.33
2022-12-11T14:13:31.354Z,0.19
2022-12-11T14:14:54.004Z,0.20
2022-12-11T14:15:57.312Z,0.25
2022-12-11T14:17:00.810Z,0.19
2022-12-11T14:18:05.702Z,0.16
2022-12-11T14:19:11.260Z,0.28
2022-12-11T14:20:21.906Z,0.42
2022-12-11T14:21:26.090Z,0.22
2022-12-11T14:22:30.412Z,0.13
2022-12-11T14:23:36.809Z,0.17
2022-12-11T14:24:50.507Z,0.03
2022-12-11T14:26:01.024Z,0.01
2022-12-11T14:27:05.042Z,0.13
2022-12-11T14:28:17.452Z,0.23
2022-12-11T14:29:33.405Z,0.14
2022-12-11T14:30:38.968Z,0.25
2022-12-11T14:31:44.439Z,0.25
2022-12-11T14:32:48.809Z,0.11
2022-12-11T14:33:56.105Z,0.11
2022-12-11T14:35:01.408Z,0.13
2022-12-11T14:36:06.065Z,0.07
2022-12-11T14:37:09.902Z,0.02
2022-12-11T14:38:26.340Z,0.02
2022-12-11T14:39:41.546Z,-0.01
2022-12-11T14:40:50.795Z,0.02
2022-12-11T14:42:12.888Z,0.01
2022-12-11T14:43:34.482Z,-0.14
2022-12-11T14:45:04.340Z,-0.02
2022-12-11T14:46:16.106Z,-0.02
2022-12-11T14:47:31.217Z,-0.18
2022-12-11T14:48:45.053Z,-0.14
2022-12-11T14:49:59.023Z,-0.15
2022-12-11T14:51:06.751Z,-0.13
2022-12-11T14:52:24.206Z,-0.11
2022-12-11T14:53:40.876Z,-0.06
2022-12-11T14:54:51.631Z,-0.27
2022-12-11T14:55:56.271Z,-0.21
2022-12-11T14:57:01.446Z,-0.12
2022-12-11T14:58:25.234Z,-0.20
2022-12-11T14:59:32.752Z,-0.15
2022-12-11T15:00:38.129Z,-0.20